Mr. Cass — WDB5593 — position and weather

sailwx.info

Track history (hours):
 
Tides and Currents Weather Stations Pressure Air Temp Water Temp Dewpoint Dewpoint Depression Visibility Wind Speed Wind Dir Waves Ship Positions

Mr. Cass

Owner: Cass Marine Towing LLC, Marrero, LA. More information available from US FCC via Universal Licensing System and Coast Guard Vessel Documentation Center.

Last reported at 2014-Oct-30 15:26 UTC. Time now 2014-Oct-31 17:09 UTC.
Position N 29°54' W 090°05'.

Length 17 m; draft 3.5 m.

Type: Towing. MMSI: 366911310.

Date/timePositionNaut miles runAvg speedWind from/ knotsBaromVisibWave heightAir tempDewpointWater temp
2014-Oct-30 15:26N 29°54' W 090°05'3 0.1
2014-Oct-29 05:28N 29°57' W 090°03'  
2014-Oct-26 19:06N 29°57' W 090°02'3 3.9
2014-Oct-26 18:23N 29°55' W 090°04'5 1.3
2014-Oct-26 14:08N 29°57' W 090°10'3 3.9
2014-Oct-26 13:26N 29°55' W 090°08'1 0.2
2014-Oct-26 10:17N 29°54' W 090°07'0 0.0
2014-Oct-26 04:08N 29°54' W 090°07'0 0.0
2014-Oct-26 03:29N 29°54' W 090°07'0 0.0
2014-Oct-26 01:08N 29°54' W 090°07'0 0.0
2014-Oct-25 15:33N 29°54' W 090°07'0 0.0
2014-Oct-25 14:33N 29°54' W 090°07'0 0.0
2014-Oct-25 13:33N 29°54' W 090°07'0 0.0
2014-Oct-25 12:33N 29°54' W 090°07'0 0.0
2014-Oct-25 11:32N 29°54' W 090°07'0 0.0
2014-Oct-25 10:33N 29°54' W 090°07'0 0.0
2014-Oct-25 09:32N 29°54' W 090°07'0 0.0
2014-Oct-25 08:31N 29°54' W 090°07'0 0.0
2014-Oct-25 07:31N 29°54' W 090°07'0 0.0
2014-Oct-25 06:16N 29°54' W 090°07'0 0.0
2014-Oct-25 05:26N 29°54' W 090°07'24 1.5
2014-Oct-24 13:13N 30°06' W 089°43'3 4.8
2014-Oct-24 12:33N 30°08' W 089°40'19 0.9
2014-Oct-23 16:07N 30°00' W 089°59'2 2.9
2014-Oct-23 15:32N 29°60' W 090°01'1 1.2
2014-Oct-23 14:32N 29°58' W 090°01'1 0.1
2014-Oct-23 06:09N 29°57' W 090°02'0 0.0
2014-Oct-23 00:18N 29°57' W 090°02'0 0.0
2014-Oct-22 13:21N 29°57' W 090°02'36 1.5
2014-Oct-21 13:15N 29°34' W 090°32'8 4.3
2014-Oct-21 11:20N 29°34' W 090°23'4 4.5
2014-Oct-21 10:31N 29°38' W 090°21'4 4.4
2014-Oct-21 09:33N 29°39' W 090°16'10 4.4
2014-Oct-21 07:19N 29°46' W 090°08'  
Track history (hours):
 
Tides and Currents Weather Stations Pressure Air Temp Water Temp Dewpoint Dewpoint Depression Visibility Wind Speed Wind Dir Waves Ship Positions

Mr. Cass

Owner: Cass Marine Towing LLC, Marrero, LA. More information available from US FCC via Universal Licensing System and Coast Guard Vessel Documentation Center.

Last reported at 2014-Oct-30 15:26 UTC. Time now 2014-Oct-31 17:09 UTC.
Position N 29°54' W 090°05'.

Length 17 m; draft 3.5 m.

Type: Towing. MMSI: 366911310.

Date/timePositionNaut miles runAvg speedWind from/ knotsBaromVisibWave heightAir tempDewpointWater temp
2014-Oct-30 15:26N 29°54' W 090°05'3 0.1
2014-Oct-29 05:28N 29°57' W 090°03'  
2014-Oct-26 19:06N 29°57' W 090°02'3 3.9
2014-Oct-26 18:23N 29°55' W 090°04'5 1.3
2014-Oct-26 14:08N 29°57' W 090°10'3 3.9
2014-Oct-26 13:26N 29°55' W 090°08'1 0.2
2014-Oct-26 10:17N 29°54' W 090°07'0 0.0
2014-Oct-26 04:08N 29°54' W 090°07'0 0.0
2014-Oct-26 03:29N 29°54' W 090°07'0 0.0
2014-Oct-26 01:08N 29°54' W 090°07'0 0.0
2014-Oct-25 15:33N 29°54' W 090°07'0 0.0
2014-Oct-25 14:33N 29°54' W 090°07'0 0.0
2014-Oct-25 13:33N 29°54' W 090°07'0 0.0
2014-Oct-25 12:33N 29°54' W 090°07'0 0.0
2014-Oct-25 11:32N 29°54' W 090°07'0 0.0
2014-Oct-25 10:33N 29°54' W 090°07'0 0.0
2014-Oct-25 09:32N 29°54' W 090°07'0 0.0
2014-Oct-25 08:31N 29°54' W 090°07'0 0.0
2014-Oct-25 07:31N 29°54' W 090°07'0 0.0
2014-Oct-25 06:16N 29°54' W 090°07'0 0.0
2014-Oct-25 05:26N 29°54' W 090°07'24 1.5
2014-Oct-24 13:13N 30°06' W 089°43'3 4.8
2014-Oct-24 12:33N 30°08' W 089°40'19 0.9
2014-Oct-23 16:07N 30°00' W 089°59'2 2.9
2014-Oct-23 15:32N 29°60' W 090°01'1 1.2
2014-Oct-23 14:32N 29°58' W 090°01'1 0.1
2014-Oct-23 06:09N 29°57' W 090°02'0 0.0
2014-Oct-23 00:18N 29°57' W 090°02'0 0.0
2014-Oct-22 13:21N 29°57' W 090°02'36 1.5
2014-Oct-21 13:15N 29°34' W 090°32'8 4.3
2014-Oct-21 11:20N 29°34' W 090°23'4 4.5
2014-Oct-21 10:31N 29°38' W 090°21'4 4.4
2014-Oct-21 09:33N 29°39' W 090°16'10 4.4
2014-Oct-21 07:19N 29°46' W 090°08'  

Dump ship's entire track history